sensor_id;sensor_type;location;lat;lon;timestamp;pressure;altitude;pressure_sealevel;temperature;humidity
46430;BME280;32131;53.454;-6.180;2023-03-13T00:01:07;98145.53;;;11.31;100.00
46430;BME280;32131;53.454;-6.180;2023-03-13T00:03:38;98145.47;;;11.32;100.00
46430;BME280;32131;53.454;-6.180;2023-03-13T00:06:06;98132.50;;;11.34;100.00
46430;BME280;32131;53.454;-6.180;2023-03-13T00:08:34;98126.50;;;11.33;100.00
46430;BME280;32131;53.454;-6.180;2023-03-13T00:11:03;98138.59;;;11.33;100.00
46430;BME280;32131;53.454;-6.180;2023-03-13T00:13:31;98142.81;;;11.36;100.00
46430;BME280;32131;53.454;-6.180;2023-03-13T00:16:00;98135.84;;;11.38;100.00
46430;BME280;32131;53.454;-6.180;2023-03-13T00:18:28;98104.84;;;11.38;100.00
46430;BME280;32131;53.454;-6.180;2023-03-13T00:20:59;98095.28;;;11.41;100.00
46430;BME280;32131;53.454;-6.180;2023-03-13T00:23:27;98104.69;;;11.42;100.00
46430;BME280;32131;53.454;-6.180;2023-03-13T00:25:56;98084.94;;;11.41;100.00
46430;BME280;32131;53.454;-6.180;2023-03-13T00:28:27;98081.59;;;11.38;100.00
46430;BME280;32131;53.454;-6.180;2023-03-13T00:31:02;98078.50;;;11.26;100.00
46430;BME280;32131;53.454;-6.180;2023-03-13T00:33:31;98062.47;;;11.15;100.00
46430;BME280;32131;53.454;-6.180;2023-03-13T00:36:03;98065.19;;;11.10;100.00
46430;BME280;32131;53.454;-6.180;2023-03-13T00:38:34;98058.44;;;11.06;100.00
46430;BME280;32131;53.454;-6.180;2023-03-13T00:41:04;98051.69;;;11.00;100.00
46430;BME280;32131;53.454;-6.180;2023-03-13T00:43:33;98047.41;;;10.99;100.00
46430;BME280;32131;53.454;-6.180;2023-03-13T00:46:01;98040.56;;;10.98;100.00
46430;BME280;32131;53.454;-6.180;2023-03-13T00:48:30;98050.06;;;10.98;100.00
46430;BME280;32131;53.454;-6.180;2023-03-13T00:50:59;98039.75;;;10.96;100.00
46430;BME280;32131;53.454;-6.180;2023-03-13T00:53:28;98036.25;;;10.99;100.00
46430;BME280;32131;53.454;-6.180;2023-03-13T00:55:58;98019.78;;;11.03;100.00
46430;BME280;32131;53.454;-6.180;2023-03-13T00:58:28;98005.16;;;11.02;100.00
46430;BME280;32131;53.454;-6.180;2023-03-13T01:00:56;98014.56;;;11.05;100.00
46430;BME280;32131;53.454;-6.180;2023-03-13T01:03:25;98014.53;;;11.06;100.00
46430;BME280;32131;53.454;-6.180;2023-03-13T01:05:56;98002.56;;;11.04;100.00
46430;BME280;32131;53.454;-6.180;2023-03-13T01:08:25;97996.63;;;11.00;100.00
46430;BME280;32131;53.454;-6.180;2023-03-13T01:10:59;98000.94;;;10.99;100.00
46430;BME280;32131;53.454;-6.180;2023-03-13T01:13:28;98001.75;;;11.01;100.00
46430;BME280;32131;53.454;-6.180;2023-03-13T01:15:56;97997.41;;;11.02;100.00
46430;BME280;32131;53.454;-6.180;2023-03-13T01:18:24;98001.66;;;11.05;100.00
46430;BME280;32131;53.454;-6.180;2023-03-13T01:20:52;97995.59;;;11.06;100.00
46430;BME280;32131;53.454;-6.180;2023-03-13T01:23:21;97999.03;;;11.06;100.00
46430;BME280;32131;53.454;-6.180;2023-03-13T01:25:49;97983.47;;;11.08;100.00
46430;BME280;32131;53.454;-6.180;2023-03-13T01:28:18;97994.66;;;11.08;100.00
46430;BME280;32131;53.454;-6.180;2023-03-13T01:30:46;97996.41;;;11.08;100.00
46430;BME280;32131;53.454;-6.180;2023-03-13T01:33:15;97990.34;;;11.09;100.00
46430;BME280;32131;53.454;-6.180;2023-03-13T01:35:43;97980.81;;;11.11;100.00
46430;BME280;32131;53.454;-6.180;2023-03-13T01:38:11;97983.41;;;11.11;100.00
46430;BME280;32131;53.454;-6.180;2023-03-13T01:40:41;97979.97;;;11.10;100.00
46430;BME280;32131;53.454;-6.180;2023-03-13T01:43:16;97977.44;;;11.09;100.00
46430;BME280;32131;53.454;-6.180;2023-03-13T01:45:58;97967.03;;;11.12;100.00
46430;BME280;32131;53.454;-6.180;2023-03-13T01:48:33;97949.03;;;11.09;100.00
46430;BME280;32131;53.454;-6.180;2023-03-13T01:51:05;97944.75;;;11.08;100.00
46430;BME280;32131;53.454;-6.180;2023-03-13T01:53:37;97950.06;;;11.03;100.00
46430;BME280;32131;53.454;-6.180;2023-03-13T01:56:10;97940.69;;;11.00;100.00
46430;BME280;32131;53.454;-6.180;2023-03-13T01:58:40;97919.13;;;11.01;100.00
46430;BME280;32131;53.454;-6.180;2023-03-13T02:01:10;97913.16;;;10.99;100.00
46430;BME280;32131;53.454;-6.180;2023-03-13T02:03:39;97907.91;;;11.03;100.00
46430;BME280;32131;53.454;-6.180;2023-03-13T02:06:09;97899.44;;;10.97;100.00
46430;BME280;32131;53.454;-6.180;2023-03-13T02:08:40;97904.69;;;10.96;100.00
46430;BME280;32131;53.454;-6.180;2023-03-13T02:11:18;97905.38;;;11.01;100.00
46430;BME280;32131;53.454;-6.180;2023-03-13T02:13:49;97888.03;;;11.05;100.00
46430;BME280;32131;53.454;-6.180;2023-03-13T02:16:20;97895.69;;;11.08;100.00
46430;BME280;32131;53.454;-6.180;2023-03-13T02:18:48;97887.81;;;11.12;100.00
46430;BME280;32131;53.454;-6.180;2023-03-13T02:21:27;97879.91;;;11.17;100.00
46430;BME280;32131;53.454;-6.180;2023-03-13T02:24:04;97864.41;;;11.17;100.00
46430;BME280;32131;53.454;-6.180;2023-03-13T02:26:37;97848.25;;;11.12;100.00
46430;BME280;32131;53.454;-6.180;2023-03-13T02:29:06;97858.00;;;11.02;100.00
46430;BME280;32131;53.454;-6.180;2023-03-13T02:31:34;97867.53;;;11.00;100.00
46430;BME280;32131;53.454;-6.180;2023-03-13T02:34:02;97864.78;;;11.06;100.00
46430;BME280;32131;53.454;-6.180;2023-03-13T02:36:31;97861.16;;;11.12;100.00
46430;BME280;32131;53.454;-6.180;2023-03-13T02:39:02;97860.13;;;11.16;100.00
46430;BME280;32131;53.454;-6.180;2023-03-13T02:41:32;97854.91;;;11.17;100.00
46430;BME280;32131;53.454;-6.180;2023-03-13T02:44:02;97842.88;;;11.16;100.00
46430;BME280;32131;53.454;-6.180;2023-03-13T02:46:43;97835.25;;;11.13;100.00
46430;BME280;32131;53.454;-6.180;2023-03-13T02:49:22;97828.47;;;11.11;100.00
46430;BME280;32131;53.454;-6.180;2023-03-13T02:51:51;97825.75;;;11.14;100.00
46430;BME280;32131;53.454;-6.180;2023-03-13T02:54:22;97803.38;;;11.14;100.00
46430;BME280;32131;53.454;-6.180;2023-03-13T02:56:54;97804.22;;;11.15;100.00
46430;BME280;32131;53.454;-6.180;2023-03-13T02:59:24;97800.97;;;11.10;100.00
46430;BME280;32131;53.454;-6.180;2023-03-13T03:01:53;97793.31;;;11.07;100.00
46430;BME280;32131;53.454;-6.180;2023-03-13T03:04:22;97802.09;;;11.01;100.00
46430;BME280;32131;53.454;-6.180;2023-03-13T03:06:51;97792.84;;;10.95;100.00
46430;BME280;32131;53.454;-6.180;2023-03-13T03:09:20;97785.19;;;10.92;100.00
46430;BME280;32131;53.454;-6.180;2023-03-13T03:11:49;97777.69;;;10.84;100.00
46430;BME280;32131;53.454;-6.180;2023-03-13T03:14:17;97775.97;;;10.85;100.00
46430;BME280;32131;53.454;-6.180;2023-03-13T03:16:46;97763.09;;;10.83;100.00
46430;BME280;32131;53.454;-6.180;2023-03-13T03:19:14;97771.75;;;10.82;100.00
46430;BME280;32131;53.454;-6.180;2023-03-13T03:21:42;97762.31;;;10.81;100.00
46430;BME280;32131;53.454;-6.180;2023-03-13T03:24:10;97755.41;;;10.82;100.00
46430;BME280;32131;53.454;-6.180;2023-03-13T03:26:38;97748.53;;;10.82;100.00
46430;BME280;32131;53.454;-6.180;2023-03-13T03:29:07;97739.91;;;10.82;100.00
46430;BME280;32131;53.454;-6.180;2023-03-13T03:31:36;97734.66;;;10.85;100.00
46430;BME280;32131;53.454;-6.180;2023-03-13T03:34:06;97734.53;;;10.88;100.00
46430;BME280;32131;53.454;-6.180;2023-03-13T03:36:34;97737.13;;;10.88;100.00
46430;BME280;32131;53.454;-6.180;2023-03-13T03:39:02;97719.91;;;10.89;100.00
46430;BME280;32131;53.454;-6.180;2023-03-13T03:41:31;97720.66;;;10.92;100.00
46430;BME280;32131;53.454;-6.180;2023-03-13T03:43:59;97717.91;;;10.97;100.00
46430;BME280;32131;53.454;-6.180;2023-03-13T03:46:27;97716.06;;;11.00;100.00
46430;BME280;32131;53.454;-6.180;2023-03-13T03:48:55;97709.06;;;11.04;100.00
46430;BME280;32131;53.454;-6.180;2023-03-13T03:51:24;97723.66;;;11.05;100.00
46430;BME280;32131;53.454;-6.180;2023-03-13T03:53:53;97724.69;;;10.99;100.00
46430;BME280;32131;53.454;-6.180;2023-03-13T03:56:21;97710.53;;;10.86;100.00
46430;BME280;32131;53.454;-6.180;2023-03-13T03:58:49;97723.00;;;10.73;100.00
46430;BME280;32131;53.454;-6.180;2023-03-13T04:01:17;97723.34;;;10.62;100.00
46430;BME280;32131;53.454;-6.180;2023-03-13T04:03:45;97719.28;;;10.55;100.00
46430;BME280;32131;53.454;-6.180;2023-03-13T04:06:14;97705.84;;;10.45;100.00
46430;BME280;32131;53.454;-6.180;2023-03-13T04:08:43;97703.41;;;10.41;100.00
46430;BME280;32131;53.454;-6.180;2023-03-13T04:11:11;97670.84;;;10.38;100.00
46430;BME280;32131;53.454;-6.180;2023-03-13T04:13:39;97703.59;;;10.34;99.24
46430;BME280;32131;53.454;-6.180;2023-03-13T04:16:08;97696.81;;;10.30;97.75
46430;BME280;32131;53.454;-6.180;2023-03-13T04:18:36;97688.41;;;10.25;97.75
46430;BME280;32131;53.454;-6.180;2023-03-13T04:21:05;97687.00;;;10.15;98.04
46430;BME280;32131;53.454;-6.180;2023-03-13T04:23:33;97705.25;;;10.09;97.93
46430;BME280;32131;53.454;-6.180;2023-03-13T04:26:02;97699.50;;;10.00;99.03
46430;BME280;32131;53.454;-6.180;2023-03-13T04:28:31;97711.78;;;9.90;99.78
46430;BME280;32131;53.454;-6.180;2023-03-13T04:30:59;97703.69;;;9.74;100.00
46430;BME280;32131;53.454;-6.180;2023-03-13T04:33:28;97702.38;;;9.61;100.00
46430;BME280;32131;53.454;-6.180;2023-03-13T04:35:56;97704.41;;;9.50;100.00
46430;BME280;32131;53.454;-6.180;2023-03-13T04:38:24;97690.97;;;9.38;100.00
46430;BME280;32131;53.454;-6.180;2023-03-13T04:40:53;97687.88;;;9.27;100.00
46430;BME280;32131;53.454;-6.180;2023-03-13T04:43:22;97688.84;;;9.23;100.00
46430;BME280;32131;53.454;-6.180;2023-03-13T04:45:51;97707.75;;;9.22;100.00
46430;BME280;32131;53.454;-6.180;2023-03-13T04:48:20;97697.44;;;9.22;100.00
46430;BME280;32131;53.454;-6.180;2023-03-13T04:50:48;97694.88;;;9.22;100.00
46430;BME280;32131;53.454;-6.180;2023-03-13T04:53:17;97694.88;;;9.22;100.00
46430;BME280;32131;53.454;-6.180;2023-03-13T04:55:44;97682.06;;;9.20;100.00
46430;BME280;32131;53.454;-6.180;2023-03-13T04:58:13;97686.34;;;9.20;100.00
46430;BME280;32131;53.454;-6.180;2023-03-13T05:00:42;97676.97;;;9.19;100.00
46430;BME280;32131;53.454;-6.180;2023-03-13T05:03:10;97684.69;;;9.19;100.00
46430;BME280;32131;53.454;-6.180;2023-03-13T05:05:38;97683.78;;;9.20;100.00
46430;BME280;32131;53.454;-6.180;2023-03-13T05:08:06;97678.59;;;9.21;100.00
46430;BME280;32131;53.454;-6.180;2023-03-13T05:10:36;97673.47;;;9.20;100.00
46430;BME280;32131;53.454;-6.180;2023-03-13T05:13:04;97658.09;;;9.18;100.00
46430;BME280;32131;53.454;-6.180;2023-03-13T05:15:32;97646.94;;;9.18;100.00
46430;BME280;32131;53.454;-6.180;2023-03-13T05:18:02;97652.19;;;9.15;100.00
46430;BME280;32131;53.454;-6.180;2023-03-13T05:20:31;97650.47;;;9.13;100.00
46430;BME280;32131;53.454;-6.180;2023-03-13T05:23:00;97638.59;;;9.09;100.00
46430;BME280;32131;53.454;-6.180;2023-03-13T05:25:28;97641.31;;;9.05;100.00
46430;BME280;32131;53.454;-6.180;2023-03-13T05:27:57;97642.13;;;9.05;100.00
46430;BME280;32131;53.454;-6.180;2023-03-13T05:30:25;97644.75;;;9.04;100.00
46430;BME280;32131;53.454;-6.180;2023-03-13T05:33:07;97641.38;;;9.02;100.00
46430;BME280;32131;53.454;-6.180;2023-03-13T05:35:35;97639.66;;;9.02;100.00
46430;BME280;32131;53.454;-6.180;2023-03-13T05:38:03;97636.19;;;9.03;100.00
46430;BME280;32131;53.454;-6.180;2023-03-13T05:40:31;97632.69;;;9.06;100.00
46430;BME280;32131;53.454;-6.180;2023-03-13T05:42:59;97630.06;;;9.07;100.00
46430;BME280;32131;53.454;-6.180;2023-03-13T05:45:27;97624.13;;;9.05;100.00
46430;BME280;32131;53.454;-6.180;2023-03-13T05:47:55;97623.31;;;9.03;100.00
46430;BME280;32131;53.454;-6.180;2023-03-13T05:50:26;97625.06;;;9.03;100.00
46430;BME280;32131;53.454;-6.180;2023-03-13T05:52:54;97618.34;;;8.97;100.00
46430;BME280;32131;53.454;-6.180;2023-03-13T05:55:23;97614.94;;;8.96;100.00
46430;BME280;32131;53.454;-6.180;2023-03-13T05:57:51;97615.06;;;8.92;100.00
46430;BME280;32131;53.454;-6.180;2023-03-13T06:00:19;97610.00;;;8.89;100.00
46430;BME280;32131;53.454;-6.180;2023-03-13T06:02:48;97615.25;;;8.84;100.00
46430;BME280;32131;53.454;-6.180;2023-03-13T06:05:17;97611.88;;;8.84;100.00
46430;BME280;32131;53.454;-6.180;2023-03-13T06:07:48;97604.16;;;8.82;100.00
46430;BME280;32131;53.454;-6.180;2023-03-13T06:10:16;97602.41;;;8.84;100.00
46430;BME280;32131;53.454;-6.180;2023-03-13T06:12:51;97615.38;;;8.79;100.00
46430;BME280;32131;53.454;-6.180;2023-03-13T06:15:20;97595.81;;;8.74;100.00
46430;BME280;32131;53.454;-6.180;2023-03-13T06:17:48;97591.59;;;8.71;100.00
46430;BME280;32131;53.454;-6.180;2023-03-13T06:20:16;97591.53;;;8.74;100.00
46430;BME280;32131;53.454;-6.180;2023-03-13T06:22:44;97587.22;;;8.75;100.00
46430;BME280;32131;53.454;-6.180;2023-03-13T06:25:14;97582.69;;;8.85;100.00
46430;BME280;32131;53.454;-6.180;2023-03-13T06:27:42;97570.34;;;8.96;100.00
46430;BME280;32131;53.454;-6.180;2023-03-13T06:30:11;97572.56;;;9.08;100.00
46430;BME280;32131;53.454;-6.180;2023-03-13T06:32:39;97574.13;;;9.14;100.00
46430;BME280;32131;53.454;-6.180;2023-03-13T06:35:08;97582.75;;;9.11;100.00
46430;BME280;32131;53.454;-6.180;2023-03-13T06:37:36;97580.19;;;9.11;100.00
46430;BME280;32131;53.454;-6.180;2023-03-13T06:40:05;97590.47;;;9.11;100.00
46430;BME280;32131;53.454;-6.180;2023-03-13T06:42:35;97591.47;;;9.07;100.00
46430;BME280;32131;53.454;-6.180;2023-03-13T06:45:04;97596.69;;;9.04;100.00
46430;BME280;32131;53.454;-6.180;2023-03-13T06:47:32;97599.19;;;9.07;100.00
46430;BME280;32131;53.454;-6.180;2023-03-13T06:50:00;97595.59;;;9.13;100.00
46430;BME280;32131;53.454;-6.180;2023-03-13T06:52:28;97604.06;;;9.17;100.00
46430;BME280;32131;53.454;-6.180;2023-03-13T06:55:10;97605.66;;;9.21;100.00
46430;BME280;32131;53.454;-6.180;2023-03-13T06:57:41;97602.00;;;9.28;100.00
46430;BME280;32131;53.454;-6.180;2023-03-13T07:00:10;97602.00;;;9.28;100.00
46430;BME280;32131;53.454;-6.180;2023-03-13T07:02:38;97601.06;;;9.32;100.00
46430;BME280;32131;53.454;-6.180;2023-03-13T07:05:07;97598.41;;;9.35;100.00
46430;BME280;32131;53.454;-6.180;2023-03-13T07:07:35;97597.44;;;9.38;100.00
46430;BME280;32131;53.454;-6.180;2023-03-13T07:10:05;97591.44;;;9.37;100.00
46430;BME280;32131;53.454;-6.180;2023-03-13T07:12:33;97596.59;;;9.37;100.00
46430;BME280;32131;53.454;-6.180;2023-03-13T07:15:05;97605.88;;;9.43;100.00
46430;BME280;32131;53.454;-6.180;2023-03-13T07:17:34;97597.19;;;9.47;100.00
46430;BME280;32131;53.454;-6.180;2023-03-13T07:20:03;97609.16;;;9.48;100.00
46430;BME280;32131;53.454;-6.180;2023-03-13T07:22:32;97599.63;;;9.52;100.00
46430;BME280;32131;53.454;-6.180;2023-03-13T07:25:00;97612.34;;;9.56;100.00
46430;BME280;32131;53.454;-6.180;2023-03-13T07:27:28;97596.91;;;9.56;100.00
46430;BME280;32131;53.454;-6.180;2023-03-13T07:29:58;97606.25;;;9.59;100.00
46430;BME280;32131;53.454;-6.180;2023-03-13T07:32:31;97606.25;;;9.59;100.00
46430;BME280;32131;53.454;-6.180;2023-03-13T07:34:59;97603.78;;;9.56;100.00
46430;BME280;32131;53.454;-6.180;2023-03-13T07:37:29;97612.38;;;9.55;100.00
46430;BME280;32131;53.454;-6.180;2023-03-13T07:39:58;97608.13;;;9.54;100.00
46430;BME280;32131;53.454;-6.180;2023-03-13T07:42:26;97620.09;;;9.55;100.00
46430;BME280;32131;53.454;-6.180;2023-03-13T07:44:54;97620.91;;;9.57;100.00
46430;BME280;32131;53.454;-6.180;2023-03-13T07:47:22;97619.16;;;9.59;100.00
46430;BME280;32131;53.454;-6.180;2023-03-13T07:49:52;97628.31;;;9.68;100.00
46430;BME280;32131;53.454;-6.180;2023-03-13T07:52:20;97619.28;;;9.83;100.00
46430;BME280;32131;53.454;-6.180;2023-03-13T07:54:49;97615.53;;;9.93;100.00
46430;BME280;32131;53.454;-6.180;2023-03-13T07:57:17;97616.19;;;9.98;100.00
46430;BME280;32131;53.454;-6.180;2023-03-13T07:59:45;97618.78;;;9.98;100.00
46430;BME280;32131;53.454;-6.180;2023-03-13T08:02:13;97621.28;;;10.01;100.00
46430;BME280;32131;53.454;-6.180;2023-03-13T08:04:42;97611.59;;;10.08;100.00
46430;BME280;32131;53.454;-6.180;2023-03-13T08:07:12;97618.50;;;10.07;100.00
46430;BME280;32131;53.454;-6.180;2023-03-13T08:09:40;97610.41;;;10.18;100.00
46430;BME280;32131;53.454;-6.180;2023-03-13T08:12:08;97615.63;;;10.17;100.00
46430;BME280;32131;53.454;-6.180;2023-03-13T08:14:37;97624.84;;;10.24;100.00
46430;BME280;32131;53.454;-6.180;2023-03-13T08:17:05;97619.75;;;10.21;100.00
46430;BME280;32131;53.454;-6.180;2023-03-13T08:19:33;97620.63;;;10.21;100.00
46430;BME280;32131;53.454;-6.180;2023-03-13T08:22:02;97621.44;;;10.22;100.00
46430;BME280;32131;53.454;-6.180;2023-03-13T08:24:31;97631.69;;;10.25;100.00
46430;BME280;32131;53.454;-6.180;2023-03-13T08:26:59;97620.88;;;10.41;100.00
46430;BME280;32131;53.454;-6.180;2023-03-13T08:29:28;97610.75;;;10.61;100.00
46430;BME280;32131;53.454;-6.180;2023-03-13T08:31:57;97616.34;;;10.73;100.00
46430;BME280;32131;53.454;-6.180;2023-03-13T08:34:25;97623.09;;;10.77;100.00
46430;BME280;32131;53.454;-6.180;2023-03-13T08:36:53;97631.09;;;10.94;100.00
46430;BME280;32131;53.454;-6.180;2023-03-13T08:39:22;97636.19;;;10.96;100.00
46430;BME280;32131;53.454;-6.180;2023-03-13T08:41:52;97618.22;;;10.93;100.00
46430;BME280;32131;53.454;-6.180;2023-03-13T08:44:20;97630.56;;;10.84;100.00
46430;BME280;32131;53.454;-6.180;2023-03-13T08:46:48;97624.41;;;10.89;100.00
46430;BME280;32131;53.454;-6.180;2023-03-13T08:49:16;97642.31;;;10.93;100.00
46430;BME280;32131;53.454;-6.180;2023-03-13T08:51:45;97632.31;;;10.84;100.00
46430;BME280;32131;53.454;-6.180;2023-03-13T08:54:13;97637.88;;;10.97;100.00
46430;BME280;32131;53.454;-6.180;2023-03-13T08:56:41;97634.09;;;11.07;99.96
46430;BME280;32131;53.454;-6.180;2023-03-13T08:59:11;97632.50;;;11.27;99.33
46430;BME280;32131;53.454;-6.180;2023-03-13T09:01:41;97632.28;;;11.33;97.76
46430;BME280;32131;53.454;-6.180;2023-03-13T09:04:09;97633.75;;;11.40;97.41
46430;BME280;32131;53.454;-6.180;2023-03-13T09:06:37;97640.78;;;11.59;96.41
46430;BME280;32131;53.454;-6.180;2023-03-13T09:09:06;97626.66;;;11.68;95.45
46430;BME280;32131;53.454;-6.180;2023-03-13T09:11:35;97645.66;;;11.67;94.50
46430;BME280;32131;53.454;-6.180;2023-03-13T09:14:03;97646.00;;;11.57;95.05
46430;BME280;32131;53.454;-6.180;2023-03-13T09:16:34;97647.78;;;11.55;95.24
46430;BME280;32131;53.454;-6.180;2023-03-13T09:19:03;97643.66;;;11.51;95.88
46430;BME280;32131;53.454;-6.180;2023-03-13T09:21:32;97649.00;;;11.46;96.22
46430;BME280;32131;53.454;-6.180;2023-03-13T09:24:01;97659.50;;;11.42;96.93
46430;BME280;32131;53.454;-6.180;2023-03-13T09:26:29;97653.69;;;11.37;97.12
46430;BME280;32131;53.454;-6.180;2023-03-13T09:28:57;97656.25;;;11.37;97.22
46430;BME280;32131;53.454;-6.180;2023-03-13T09:31:28;97653.78;;;11.33;97.57
46430;BME280;32131;53.454;-6.180;2023-03-13T09:33:59;97661.69;;;11.29;97.87
46430;BME280;32131;53.454;-6.180;2023-03-13T09:36:27;97663.47;;;11.27;98.06
46430;BME280;32131;53.454;-6.180;2023-03-13T09:38:57;97667.59;;;11.32;98.30
46430;BME280;32131;53.454;-6.180;2023-03-13T09:41:30;97665.56;;;11.41;98.10
46430;BME280;32131;53.454;-6.180;2023-03-13T09:44:04;97679.94;;;11.48;98.07
46430;BME280;32131;53.454;-6.180;2023-03-13T09:46:39;97680.38;;;11.59;97.67
46430;BME280;32131;53.454;-6.180;2023-03-13T09:49:13;97674.88;;;11.69;97.37
46430;BME280;32131;53.454;-6.180;2023-03-13T09:51:46;97672.34;;;11.89;96.89
46430;BME280;32131;53.454;-6.180;2023-03-13T09:54:23;97676.13;;;12.04;96.12
46430;BME280;32131;53.454;-6.180;2023-03-13T09:56:55;97674.97;;;12.11;95.49
46430;BME280;32131;53.454;-6.180;2023-03-13T09:59:39;97671.41;;;12.14;94.95
46430;BME280;32131;53.454;-6.180;2023-03-13T10:02:20;97681.53;;;12.20;94.26
46430;BME280;32131;53.454;-6.180;2023-03-13T10:04:56;97680.59;;;12.43;93.85
46430;BME280;32131;53.454;-6.180;2023-03-13T10:07:27;97680.78;;;12.39;92.73
46430;BME280;32131;53.454;-6.180;2023-03-13T10:09:57;97681.19;;;12.30;93.29
46430;BME280;32131;53.454;-6.180;2023-03-13T10:12:28;97681.22;;;12.06;94.13
46430;BME280;32131;53.454;-6.180;2023-03-13T10:15:15;97679.47;;;11.84;95.36
46430;BME280;32131;53.454;-6.180;2023-03-13T10:17:46;97687.00;;;11.67;97.21
46430;BME280;32131;53.454;-6.180;2023-03-13T10:20:23;97683.03;;;11.58;98.33
46430;BME280;32131;53.454;-6.180;2023-03-13T10:22:56;97690.97;;;11.53;99.22
46430;BME280;32131;53.454;-6.180;2023-03-13T10:25:29;97692.41;;;11.60;99.61
46430;BME280;32131;53.454;-6.180;2023-03-13T10:27:59;97683.41;;;11.71;98.65
46430;BME280;32131;53.454;-6.180;2023-03-13T10:30:29;97688.22;;;11.80;98.04
46430;BME280;32131;53.454;-6.180;2023-03-13T10:32:59;97679.56;;;11.81;97.16
46430;BME280;32131;53.454;-6.180;2023-03-13T10:35:34;97686.34;;;11.84;96.69
46430;BME280;32131;53.454;-6.180;2023-03-13T10:38:07;97686.31;;;11.85;96.31
46430;BME280;32131;53.454;-6.180;2023-03-13T10:40:37;97694.63;;;11.93;95.83
46430;BME280;32131;53.454;-6.180;2023-03-13T10:43:13;97690.41;;;12.13;94.74
46430;BME280;32131;53.454;-6.180;2023-03-13T10:45:46;97685.56;;;12.27;93.59
46430;BME280;32131;53.454;-6.180;2023-03-13T10:48:18;97692.94;;;12.37;92.35
46430;BME280;32131;53.454;-6.180;2023-03-13T10:50:49;97693.31;;;12.27;92.04
46430;BME280;32131;53.454;-6.180;2023-03-13T10:53:31;97702.88;;;12.25;92.56
46430;BME280;32131;53.454;-6.180;2023-03-13T10:56:04;97706.78;;;12.36;92.37
46430;BME280;32131;53.454;-6.180;2023-03-13T10:58:40;97704.72;;;12.44;92.02
46430;BME280;32131;53.454;-6.180;2023-03-13T11:01:16;97706.44;;;12.45;91.16
46430;BME280;32131;53.454;-6.180;2023-03-13T11:03:46;97710.47;;;12.30;91.70
46430;BME280;32131;53.454;-6.180;2023-03-13T11:06:28;97708.22;;;12.21;91.54
46430;BME280;32131;53.454;-6.180;2023-03-13T11:09:04;97714.56;;;12.56;91.15
46430;BME280;32131;53.454;-6.180;2023-03-13T11:11:43;97699.72;;;13.03;89.66
46430;BME280;32131;53.454;-6.180;2023-03-13T11:14:14;97714.13;;;13.29;87.56
46430;BME280;32131;53.454;-6.180;2023-03-13T11:16:47;97706.53;;;13.25;85.54
46430;BME280;32131;53.454;-6.180;2023-03-13T11:19:28;97718.78;;;13.21;85.84
46430;BME280;32131;53.454;-6.180;2023-03-13T11:22:09;97717.84;;;13.03;85.68
46430;BME280;32131;53.454;-6.180;2023-03-13T11:24:43;97711.69;;;13.05;86.29
46430;BME280;32131;53.454;-6.180;2023-03-13T11:27:20;97714.34;;;13.04;86.72
46430;BME280;32131;53.454;-6.180;2023-03-13T11:29:55;97721.72;;;12.93;86.74
46430;BME280;32131;53.454;-6.180;2023-03-13T11:32:37;97722.22;;;12.80;86.67
46430;BME280;32131;53.454;-6.180;2023-03-13T11:35:14;97723.91;;;12.61;87.02
46430;BME280;32131;53.454;-6.180;2023-03-13T11:37:49;97725.06;;;12.53;88.24
46430;BME280;32131;53.454;-6.180;2023-03-13T11:40:22;97726.88;;;12.72;88.63
46430;BME280;32131;53.454;-6.180;2023-03-13T11:43:09;97723.84;;;13.03;87.51
46430;BME280;32131;53.454;-6.180;2023-03-13T11:46:11;97715.63;;;13.14;86.75
46430;BME280;32131;53.454;-6.180;2023-03-13T11:51:50;97709.50;;;13.36;85.89
46430;BME280;32131;53.454;-6.180;2023-03-13T11:54:40;97714.19;;;13.87;84.17
46430;BME280;32131;53.454;-6.180;2023-03-13T11:57:20;97699.63;;;14.21;81.67
46430;BME280;32131;53.454;-6.180;2023-03-13T12:00:21;97706.16;;;14.47;80.46
46430;BME280;32131;53.454;-6.180;2023-03-13T12:02:55;97698.00;;;14.55;77.63
46430;BME280;32131;53.454;-6.180;2023-03-13T12:05:26;97707.31;;;14.59;78.40
46430;BME280;32131;53.454;-6.180;2023-03-13T12:08:00;97703.66;;;14.63;76.72
46430;BME280;32131;53.454;-6.180;2023-03-13T12:10:34;97694.00;;;14.65;76.48
46430;BME280;32131;53.454;-6.180;2023-03-13T12:13:20;97700.88;;;14.68;76.04
46430;BME280;32131;53.454;-6.180;2023-03-13T12:15:58;97696.03;;;14.95;74.53
46430;BME280;32131;53.454;-6.180;2023-03-13T12:18:35;97696.50;;;14.68;74.52
46430;BME280;32131;53.454;-6.180;2023-03-13T12:21:11;97697.47;;;14.66;75.38
46430;BME280;32131;53.454;-6.180;2023-03-13T12:23:46;97700.69;;;15.06;75.46
46430;BME280;32131;53.454;-6.180;2023-03-13T12:26:18;97705.72;;;15.43;74.44
46430;BME280;32131;53.454;-6.180;2023-03-13T12:28:53;97700.59;;;15.41;74.89
46430;BME280;32131;53.454;-6.180;2023-03-13T12:31:31;97707.16;;;15.48;74.11
46430;BME280;32131;53.454;-6.180;2023-03-13T12:34:10;97703.28;;;15.39;73.25
46430;BME280;32131;53.454;-6.180;2023-03-13T12:36:43;97705.94;;;15.38;72.79
46430;BME280;32131;53.454;-6.180;2023-03-13T12:39:29;97697.09;;;15.58;71.86
46430;BME280;32131;53.454;-6.180;2023-03-13T12:42:17;97709.22;;;15.41;72.34
46430;BME280;32131;53.454;-6.180;2023-03-13T12:44:48;97706.84;;;15.21;72.91
46430;BME280;32131;53.454;-6.180;2023-03-13T12:47:21;97716.41;;;15.03;74.51
46430;BME280;32131;53.454;-6.180;2023-03-13T12:50:18;97721.09;;;14.96;76.27
46430;BME280;32131;53.454;-6.180;2023-03-13T12:53:06;97728.25;;;15.08;77.15
46430;BME280;32131;53.454;-6.180;2023-03-13T12:59:02;97715.72;;;14.82;78.81
46430;BME280;32131;53.454;-6.180;2023-03-13T13:01:33;97726.63;;;14.53;79.16
46430;BME280;32131;53.454;-6.180;2023-03-13T13:04:06;97717.22;;;14.51;79.26
46430;BME280;32131;53.454;-6.180;2023-03-13T13:07:04;97726.13;;;14.64;79.63
46430;BME280;32131;53.454;-6.180;2023-03-13T13:09:35;97722.78;;;14.80;78.94
46430;BME280;32131;53.454;-6.180;2023-03-13T13:12:19;97712.69;;;14.91;77.31